This is the latest recevied weather packets stored in our database for station/object KC4JIR. If no packets are shown the sender has not sent any weather packets the latest 10 day(s).
| Time | Temp. | Humidity | Pressure | Rain* | Wind** | Luminosity | Snow |
|---|---|---|---|---|---|---|---|
| 1777947994 | 15.56° C | 63% | 1013.7 hPa | 0 mm | - | 0 W/m² | - |
| 1777947691 | 16.11° C | 66% | 1013.6 hPa | 0 mm | - | 0 W/m² | - |
| 1777947388 | 16.11° C | 65% | 1013.4 hPa | 0 mm | - | 0 W/m² | - |
| 1777947085 | 16.11° C | 65% | 1013.6 hPa | 0 mm | - | 0 W/m² | - |
| 1777946780 | 16.11° C | 65% | 1013.3 hPa | 0 mm | - | 0 W/m² | - |
| 1777946477 | 16.11° C | 65% | 1013.2 hPa | 0 mm | - | 0 W/m² | - |
| 1777946174 | 16.67° C | 65% | 1013.3 hPa | 0 mm | - | 0 W/m² | - |
| 1777945870 | 16.67° C | 62% | 1013.2 hPa | 0 mm | - | 0 W/m² | - |
| 1777945567 | 16.67° C | 65% | 1013.1 hPa | 0 mm | - | 0 W/m² | - |
| 1777945264 | 16.67° C | 64% | 1013.2 hPa | 0 mm | - | 0 W/m² | - |
| 1777944961 | 16.67° C | 62% | 1013.2 hPa | 0 mm | - | 0 W/m² | - |
| 1777944659 | 17.22° C | 65% | 1013 hPa | 0 mm | - | 0 W/m² | - |
| 1777944356 | 17.22° C | 60% | 1013.1 hPa | 0 mm | - | 0 W/m² | - |
| 1777944053 | 17.22° C | 62% | 1012.9 hPa | 0 mm | - | 0 W/m² | - |
| 1777943749 | 17.22° C | 62% | 1012.9 hPa | 0 mm | - | 0 W/m² | - |
| 1777943447 | 17.78° C | 60% | 1012.9 hPa | 0 mm | - | 0 W/m² | - |
| 1777943142 | 17.78° C | 62% | 1012.8 hPa | 0 mm | - | 0 W/m² | - |
| 1777942838 | 17.78° C | 61% | 1012.8 hPa | 0 mm | - | 0 W/m² | - |
| 1777942535 | 17.78° C | 62% | 1012.7 hPa | 0 mm | - | 0 W/m² | - |
| 1777942233 | 18.33° C | 59% | 1012.9 hPa | 0 mm | - | 0 W/m² | - |
| 1777941929 | 18.33° C | 61% | 1012.5 hPa | 0 mm | - | 0 W/m² | - |
| 1777941626 | 18.33° C | 56% | 1013 hPa | 0 mm | - | 0 W/m² | - |
| 1777941323 | 18.89° C | 53% | 1012.8 hPa | 0 mm | - | 0 W/m² | - |
| 1777941021 | 18.89° C | 54% | 1012.6 hPa | 0 mm | - | 0 W/m² | - |
| 1777940720 | 18.89° C | 55% | 1012.5 hPa | 0 mm | - | 0 W/m² | - |
* Rain latest hour (hover to see other rain measurements)
** Current wind speed in m/s (hover to see current wind gust speed)